Gustavo Rojas Pinilla International Airport

Airport
ICAO code: 
SKSP
IATA Code: 
ADZ
Summary
ICAO Region: 
CARSAM
Territory: 
Location: 
San Andres, Archipelago of San Andres, Providencia and Santa Catalina
Serving: 
San Andres
Elevation: 
19 ft
Coordinates: 
Aerial View: 
12° 35' 10.019" N, 81° 42' 7.768" W
Metar
Observation
SKSP 031100Z 06011KT 8000 DZ SCT016 SCT200 26/25 Q1010 RMK A2983
Station
San Andres Isla / Sesquicentenario
Date/Time
2021-12-03 11:00:00
Wind direction
60°
Wind speed
11 kts
Lowest cloud amount
scattered clouds
Temperature
26°C
Dew point
25°C
Humidity
94%
QNH
1010 hPa
Weather condition
n/a

Gustavo Rojas Pinilla International Airport is the main airport in the archipelago of San Andrés (Saint Andrew), Providencia and Santa Catalina, one of the departments of Colombia.

Climatology

Tropical monsoon climate (Köppen climate classification Am)

Runways

Designator Length Width Surface Rops
6/24 2380 45 ASP Yes/Yes
Airport map: 
Aerial View: 

SKYbrary Partners:

Safety knowledge contributed by: